Jones, Georgia
Current Conditions -  °F | °C
As of 8:58 PM on Friday 19 Dec 2014 (Local Time) from KLHW Reporting Station
Overcast Overcast  
Wind Chill: 48°   Ceiling: 15000
Heat Index: 48°   Visibility: 10mi
Dew Point: 45°   Wind: 3mph
Humidity: 89%   Direction: 350°N
Pressure: 30.12"   Gusts: NA
Location:  31.7217°N, 81.4475°W
Report Text: KLHW 200158Z AUTO 35003KT 10SM SCT120 OVC150 09/07 A3012 RMK AO2 SLP203 T00890072
Loading
Personal Weather Stations






























Interactive Weather Map New forecast layout! Learn more

10-Day Weather Forecast

Advertisements
Track Severe Weather on mobile